Time;durP1;ratioP1;P1;durP2;ratioP2;P2;SDS_P1;SDS_P2;PMS_P1;PMS_P2;Temp;Humidity;BMP_temperature;BMP_pressure;BME280_temperature;BME280_humidity;BME280_pressure;Samples;Min_cycle;Max_cycle;Signal;HPM_P1;HPM_P2
2021/08/15 00:00:47;;;;;;;;;;;;;;;20.70;71.77;96659.72;5130364;27;20449;-79
2021/08/15 00:03:13;;;;;;;;;;;;;;;20.67;72.25;96661.09;5110567;27;20026;-80
2021/08/15 00:05:39;;;;;;;;;;;;;;;20.64;71.80;96661.66;5131952;27;20455;-79
2021/08/15 00:08:05;;;;;;;;;;;;;;;20.60;71.87;96660.59;5107830;27;20012;-79
2021/08/15 00:10:31;;;;;;;;;;;;;;;20.59;71.94;96658.22;5106804;27;20020;-79
2021/08/15 00:12:57;;;;;;;;;;;;;;;20.55;72.14;96659.81;5129366;27;19987;-79
2021/08/15 00:15:23;;;;;;;;;;;;;;;20.53;71.75;96656.63;5116034;28;20398;-79
2021/08/15 00:17:49;;;;;;;;;;;;;;;20.52;72.23;96652.38;5096890;28;20086;-79
2021/08/15 00:20:15;;;;;;;;;;;;;;;20.49;71.75;96648.38;5109189;27;20374;-80
2021/08/15 00:22:42;;;;;;;;;;;;;;;20.47;71.71;96639.88;5123952;27;20057;-79
2021/08/15 00:25:09;;;;;;;;;;;;;;;20.44;71.84;96646.53;5107451;27;19978;-79
2021/08/15 00:27:35;;;;;;;;;;;;;;;20.43;72.42;96641.50;5126468;27;19978;-79
2021/08/15 00:30:02;;;;;;;;;;;;;;;20.41;72.74;96636.47;5105647;27;20028;-79
2021/08/15 00:32:28;;;;;;;;;;;;;;;20.38;72.66;96638.88;5126530;27;19977;-79
2021/08/15 00:34:54;;;;;;;;;;;;;;;20.35;72.79;96640.22;5124700;27;20020;-79
2021/08/15 00:37:20;;;;;;;;;;;;;;;20.34;73.19;96637.81;5127181;27;20049;-79
2021/08/15 00:39:46;;;;;;;;;;;;;;;20.31;72.89;96636.50;5118096;27;19968;-79
2021/08/15 00:42:11;;;;;;;;;;;;;;;20.28;72.72;96631.72;5124752;27;20351;-79
2021/08/15 00:44:37;;;;;;;;;;;;;;;20.25;73.28;96629.63;5109738;28;20384;-79
2021/08/15 00:47:05;;;;;;;;;;;;;;;20.23;73.01;96631.78;5130958;27;20001;-79
2021/08/15 00:49:32;;;;;;;;;;;;;;;20.19;73.06;96625.41;5115310;28;19981;-80
2021/08/15 00:51:58;;;;;;;;;;;;;;;20.16;73.43;96625.94;5106704;27;19973;-79
2021/08/15 00:54:24;;;;;;;;;;;;;;;20.15;73.18;96619.03;5121096;27;19970;-79
2021/08/15 00:56:51;;;;;;;;;;;;;;;20.13;73.33;96621.16;5121288;27;19968;-79
2021/08/15 00:59:20;;;;;;;;;;;;;;;20.10;73.33;96611.88;5122883;27;20332;-79
2021/08/15 01:01:49;;;;;;;;;;;;;;;20.08;73.56;96609.47;5122761;27;19972;-79
2021/08/15 01:04:15;;;;;;;;;;;;;;;20.06;73.84;96613.50;5119590;27;19965;-79
2021/08/15 01:06:41;;;;;;;;;;;;;;;20.04;73.57;96602.31;5122498;27;19974;-79
2021/08/15 01:09:07;;;;;;;;;;;;;;;20.00;73.71;96599.41;5110084;28;20055;-79
2021/08/15 01:11:34;;;;;;;;;;;;;;;19.97;73.16;96602.63;5125400;27;20363;-79
2021/08/15 01:14:09;;;;;;;;;;;;;;;19.95;73.12;96604.75;5120753;27;19972;-80
2021/08/15 01:16:35;;;;;;;;;;;;;;;19.93;73.60;96593.59;5128349;27;19964;-79
2021/08/15 01:19:02;;;;;;;;;;;;;;;19.90;74.19;96599.44;5125847;27;19968;-79
2021/08/15 01:21:28;;;;;;;;;;;;;;;19.89;74.06;96602.41;5124781;27;19972;-79
2021/08/15 01:23:54;;;;;;;;;;;;;;;19.86;73.67;96598.41;5112600;28;19972;-79
2021/08/15 01:26:21;;;;;;;;;;;;;;;19.82;73.65;96598.16;5109832;28;19972;-79
2021/08/15 01:28:51;;;;;;;;;;;;;;;19.79;74.22;96592.59;5127205;28;19967;-79
2021/08/15 01:31:17;;;;;;;;;;;;;;;19.75;73.99;96595.00;5127338;28;19988;-79
2021/08/15 01:33:43;;;;;;;;;;;;;;;19.72;73.88;96597.38;5101595;28;19972;-79
2021/08/15 01:36:11;;;;;;;;;;;;;;;19.68;74.10;96594.47;5101404;28;19972;-79
2021/08/15 01:38:38;;;;;;;;;;;;;;;19.64;74.54;96596.88;5100124;28;19965;-79
2021/08/15 01:41:04;;;;;;;;;;;;;;;19.62;74.17;96592.91;5103023;28;20372;-79
2021/08/15 01:43:33;;;;;;;;;;;;;;;19.59;74.08;96591.59;5094211;28;20352;-79
2021/08/15 01:46:02;;;;;;;;;;;;;;;19.58;74.47;96589.97;5096414;28;19976;-79
2021/08/15 01:48:28;;;;;;;;;;;;;;;19.56;74.44;96589.44;5105665;28;19968;-79
2021/08/15 01:50:54;;;;;;;;;;;;;;;19.53;74.66;96584.69;5094165;28;19988;-79
2021/08/15 01:53:21;;;;;;;;;;;;;;;19.51;74.69;96588.66;5103014;28;19969;-79
2021/08/15 01:55:47;;;;;;;;;;;;;;;19.48;74.97;96590.00;5108819;28;19980;-79
2021/08/15 01:58:15;;;;;;;;;;;;;;;19.45;74.85;96590.56;5099756;28;19968;-79
2021/08/15 02:00:42;;;;;;;;;;;;;;;19.43;75.16;96582.84;5104846;28;19976;-79
2021/08/15 02:03:09;;;;;;;;;;;;;;;19.40;74.88;96591.38;5098342;28;20353;-79
2021/08/15 02:05:35;;;;;;;;;;;;;;;19.39;74.99;96588.97;5121536;28;19982;-79
2021/08/15 02:08:02;;;;;;;;;;;;;;;19.35;75.21;96594.03;5111283;28;20102;-79
2021/08/15 02:10:29;;;;;;;;;;;;;;;19.33;75.23;96595.38;5100214;28;19964;-79
2021/08/15 02:12:57;;;;;;;;;;;;;;;19.29;75.82;96586.34;5103831;28;20437;-79
2021/08/15 02:15:23;;;;;;;;;;;;;;;19.27;75.72;96586.59;5100308;28;19971;-79
2021/08/15 02:17:48;;;;;;;;;;;;;;;19.23;75.59;96591.69;5096993;28;19972;-79
2021/08/15 02:20:15;;;;;;;;;;;;;;;19.22;75.94;96582.09;5106265;28;20429;-79
2021/08/15 02:22:42;;;;;;;;;;;;;;;19.18;75.96;96583.72;5119836;28;19969;-79
2021/08/15 02:25:08;;;;;;;;;;;;;;;19.16;75.70;96580.53;5099414;28;19996;-79
2021/08/15 02:27:34;;;;;;;;;;;;;;;19.14;76.45;96580.00;5122073;27;20414;-80
2021/08/15 02:30:00;;;;;;;;;;;;;;;19.13;76.37;96578.41;5103704;28;20014;-79
2021/08/15 02:32:27;;;;;;;;;;;;;;;19.12;76.38;96576.81;5102390;28;20001;-80
2021/08/15 02:34:52;;;;;;;;;;;;;;;19.11;76.83;96572.56;5117165;28;20011;-80
2021/08/15 02:37:18;;;;;;;;;;;;;;;19.11;76.54;96577.06;5120436;27;19971;-79
2021/08/15 02:39:44;;;;;;;;;;;;;;;19.09;76.50;96574.69;5122032;27;20448;-79
2021/08/15 02:42:10;;;;;;;;;;;;;;;19.08;76.98;96570.44;5107967;28;19973;-79
2021/08/15 02:44:37;;;;;;;;;;;;;;;19.05;77.19;96574.44;5109944;28;20349;-79
2021/08/15 02:47:02;;;;;;;;;;;;;;;19.05;77.27;96573.66;5098643;28;19972;-79
2021/08/15 02:49:28;;;;;;;;;;;;;;;19.03;77.09;96579.22;5107048;28;20012;-80
2021/08/15 02:51:54;;;;;;;;;;;;;;;19.03;77.33;96581.09;5126403;27;20027;-79
2021/08/15 02:54:20;;;;;;;;;;;;;;;18.99;77.58;96580.81;5107581;28;19972;-79
2021/08/15 02:56:46;;;;;;;;;;;;;;;18.99;77.57;96574.72;5106128;28;20002;-78
2021/08/15 02:59:12;;;;;;;;;;;;;;;18.98;77.81;96581.91;5095785;28;20055;-79
2021/08/15 03:01:39;;;;;;;;;;;;;;;18.97;77.60;96580.28;5117292;27;19973;-79
2021/08/15 03:04:04;;;;;;;;;;;;;;;18.98;77.53;96578.44;5106977;28;19968;-79
2021/08/15 03:06:35;;;;;;;;;;;;;;;18.97;77.83;96576.84;5105798;28;19971;-78
2021/08/15 03:09:01;;;;;;;;;;;;;;;18.98;77.75;96576.59;5108615;28;20063;-79
2021/08/15 03:11:27;;;;;;;;;;;;;;;18.99;77.61;96577.38;5105148;28;20066;-79
2021/08/15 03:13:53;;;;;;;;;;;;;;;18.97;77.42;96576.84;5105751;28;20004;-78
2021/08/15 03:16:19;;;;;;;;;;;;;;;18.96;77.82;96570.75;5104183;28;20018;-78
2021/08/15 03:18:45;;;;;;;;;;;;;;;18.94;77.90;96569.41;5110892;28;20017;-79
2021/08/15 03:21:11;;;;;;;;;;;;;;;18.93;77.58;96565.94;5108612;28;19974;-78
2021/08/15 03:23:37;;;;;;;;;;;;;;;18.92;77.99;96563.56;5098251;28;20418;-78
2021/08/15 03:26:03;;;;;;;;;;;;;;;18.91;77.82;96569.94;5116074;28;19980;-79
2021/08/15 03:28:28;;;;;;;;;;;;;;;18.90;77.73;96560.38;5121099;27;19984;-78
2021/08/15 03:30:54;;;;;;;;;;;;;;;18.88;78.08;96562.50;5122778;27;19999;-79
2021/08/15 03:33:20;;;;;;;;;;;;;;;18.86;78.19;96555.59;5126626;27;20437;-78
2021/08/15 03:35:46;;;;;;;;;;;;;;;18.85;77.79;96551.34;5107823;27;19972;-78
2021/08/15 03:38:12;;;;;;;;;;;;;;;18.83;77.71;96542.03;5123220;27;19994;-78
2021/08/15 03:40:38;;;;;;;;;;;;;;;18.80;78.10;96543.38;5128131;27;20476;-78
2021/08/15 03:43:04;;;;;;;;;;;;;;;18.77;77.96;96541.25;5128713;27;20075;-79
2021/08/15 03:45:30;;;;;;;;;;;;;;;18.77;77.53;96543.09;5126994;27;19972;-78
2021/08/15 03:47:56;;;;;;;;;;;;;;;18.76;77.91;96546.81;5127053;27;20348;-78
2021/08/15 03:50:21;;;;;;;;;;;;;;;18.74;78.13;96544.41;5121692;27;20084;-79
2021/08/15 03:52:47;;;;;;;;;;;;;;;18.72;78.10;96541.22;5124133;27;20074;-78
2021/08/15 03:55:13;;;;;;;;;;;;;;;18.70;77.98;96540.69;5106897;28;19977;-78
2021/08/15 03:57:40;;;;;;;;;;;;;;;18.68;78.33;96545.47;5113719;28;19968;-78
2021/08/15 04:00:07;;;;;;;;;;;;;;;18.65;78.34;96533.53;5126036;27;19972;-78
2021/08/15 04:02:33;;;;;;;;;;;;;;;18.63;78.12;96533.00;5097516;28;19972;-78
2021/08/15 04:04:58;;;;;;;;;;;;;;;18.60;77.62;96532.75;5111657;27;19972;-78
2021/08/15 04:07:25;;;;;;;;;;;;;;;18.58;77.61;96532.22;5126217;27;19976;-78
2021/08/15 04:09:51;;;;;;;;;;;;;;;18.57;77.57;96528.75;5126627;27;19974;-78
2021/08/15 04:12:16;;;;;;;;;;;;;;;18.56;77.85;96534.34;5125090;27;19988;-78
2021/08/15 04:14:42;;;;;;;;;;;;;;;18.55;78.07;96536.19;5127001;27;20066;-78
2021/08/15 04:17:08;;;;;;;;;;;;;;;18.53;78.01;96530.34;5115370;27;20390;-78
2021/08/15 04:19:34;;;;;;;;;;;;;;;18.52;78.33;96534.09;5120914;27;20335;-78
2021/08/15 04:22:00;;;;;;;;;;;;;;;18.50;78.29;96535.41;5120938;27;20011;-78
2021/08/15 04:24:26;;;;;;;;;;;;;;;18.49;78.39;96525.84;5129391;27;20402;-78
2021/08/15 04:26:52;;;;;;;;;;;;;;;18.48;78.19;96533.03;5127583;27;20000;-78
2021/08/15 04:29:18;;;;;;;;;;;;;;;18.45;77.79;96530.88;5119090;27;20413;-78
2021/08/15 04:31:44;;;;;;;;;;;;;;;18.44;77.79;96534.63;5110017;28;19988;-79
2021/08/15 04:34:10;;;;;;;;;;;;;;;18.44;78.04;96543.38;5125277;27;20011;-78
2021/08/15 04:36:36;;;;;;;;;;;;;;;18.44;77.82;96540.72;5122561;27;19975;-78
2021/08/15 04:39:02;;;;;;;;;;;;;;;18.43;78.64;96536.47;5127695;27;20410;-78
2021/08/15 04:41:28;;;;;;;;;;;;;;;18.43;79.07;96536.47;5130305;27;19968;-78
2021/08/15 04:43:54;;;;;;;;;;;;;;;18.44;78.79;96542.59;5100643;27;19983;-78
2021/08/15 04:46:20;;;;;;;;;;;;;;;18.44;78.77;96546.03;5134280;27;19972;-78
2021/08/15 04:48:46;;;;;;;;;;;;;;;18.45;78.35;96544.16;5105111;27;19975;-78
2021/08/15 04:51:12;;;;;;;;;;;;;;;18.50;78.33;96546.03;5125927;27;20536;-78
2021/08/15 04:53:38;;;;;;;;;;;;;;;18.62;78.25;96542.03;5106905;27;20007;-78
2021/08/15 04:56:04;;;;;;;;;;;;;;;18.77;78.00;96546.56;5126201;27;19972;-78
2021/08/15 04:58:30;;;;;;;;;;;;;;;18.96;77.77;96538.03;5125188;27;19968;-78
2021/08/15 05:00:55;;;;;;;;;;;;;;;19.14;76.94;96539.34;5125119;27;20340;-80
2021/08/15 05:03:21;;;;;;;;;;;;;;;19.34;76.42;96547.25;5121317;27;19975;-78
2021/08/15 05:05:47;;;;;;;;;;;;;;;19.58;76.05;96543.97;5099206;28;20011;-79
2021/08/15 05:08:13;;;;;;;;;;;;;;;19.80;75.36;96547.09;5123984;27;19972;-78
2021/08/15 05:10:42;;;;;;;;;;;;;;;20.03;74.67;96539.47;5128134;27;20336;-78
2021/08/15 05:13:09;;;;;;;;;;;;;;;20.22;74.38;96539.63;5126174;27;19983;-78
2021/08/15 05:15:35;;;;;;;;;;;;;;;20.43;74.05;96549.06;5072059;28;19984;-79
2021/08/15 05:18:02;;;;;;;;;;;;;;;20.66;73.33;96546.75;5118253;27;20063;-78
2021/08/15 05:20:29;;;;;;;;;;;;;;;20.90;72.68;96541.50;5126489;27;19995;-78
2021/08/15 05:22:57;;;;;;;;;;;;;;;21.13;72.06;96547.94;5128071;27;20313;-78
2021/08/15 05:25:23;;;;;;;;;;;;;;;21.35;71.44;96544.75;5131204;27;19976;-78
2021/08/15 05:27:49;;;;;;;;;;;;;;;21.58;70.78;96534.38;5108868;28;19964;-79
2021/08/15 05:30:15;;;;;;;;;;;;;;;21.80;70.10;96541.84;5123401;27;19996;-79
2021/08/15 05:32:42;;;;;;;;;;;;;;;22.00;69.33;96541.53;5098346;28;19984;-81
2021/08/15 05:35:09;;;;;;;;;;;;;;;22.19;68.97;96536.19;5121190;28;19976;-79
2021/08/15 05:37:35;;;;;;;;;;;;;;;22.38;68.51;96541.53;5126399;28;19972;-79
2021/08/15 05:40:00;;;;;;;;;;;;;;;22.58;67.58;96543.09;5107605;28;19968;-79
2021/08/15 05:42:26;;;;;;;;;;;;;;;22.77;67.24;96532.34;5124367;28;20343;-79
2021/08/15 05:44:52;;;;;;;;;;;;;;;22.86;66.24;96537.81;5125958;28;19972;-79
2021/08/15 05:47:18;;;;;;;;;;;;;;;22.89;66.21;96543.38;5134430;28;20018;-79
2021/08/15 05:49:44;;;;;;;;;;;;;;;23.03;66.16;96529.25;5119535;28;20436;-79
2021/08/15 05:52:10;;;;;;;;;;;;;;;23.25;65.67;96533.94;5106439;28;19999;-79
2021/08/15 05:54:36;;;;;;;;;;;;;;;23.41;65.13;96527.16;5128493;28;19968;-79
2021/08/15 05:57:02;;;;;;;;;;;;;;;23.52;64.77;96533.13;5119325;28;19968;-79
2021/08/15 05:59:28;;;;;;;;;;;;;;;23.72;64.48;96537.25;5102898;27;20025;-79
2021/08/15 06:01:55;;;;;;;;;;;;;;;23.94;64.21;96531.19;5127749;27;19972;-80
2021/08/15 06:04:21;;;;;;;;;;;;;;;24.10;63.26;96529.75;5132062;27;19972;-80
2021/08/15 06:06:47;;;;;;;;;;;;;;;24.26;62.72;96516.00;5115188;27;19999;-79
2021/08/15 06:09:13;;;;;;;;;;;;;;;24.31;62.45;96516.66;5110220;28;19972;-79
2021/08/15 06:11:39;;;;;;;;;;;;;;;24.39;62.64;96512.47;5131167;27;20528;-79
2021/08/15 06:14:05;;;;;;;;;;;;;;;24.49;62.62;96511.47;5102969;27;19968;-79
2021/08/15 06:16:31;;;;;;;;;;;;;;;24.42;62.26;96511.88;5129289;27;20011;-80
2021/08/15 06:18:57;;;;;;;;;;;;;;;24.38;62.52;96505.53;5129851;27;20011;-80
2021/08/15 06:21:23;;;;;;;;;;;;;;;24.43;62.64;96501.94;5108944;27;19967;-79
2021/08/15 06:23:49;;;;;;;;;;;;;;;24.50;62.28;96505.00;5125517;27;19963;-79
2021/08/15 06:26:16;;;;;;;;;;;;;;;24.43;62.42;96500.03;5124218;27;19973;-79
2021/08/15 06:28:42;;;;;;;;;;;;;;;24.47;62.39;96501.00;5132492;27;19971;-79
2021/08/15 06:31:08;;;;;;;;;;;;;;;24.55;62.80;96504.06;5125408;27;19991;-79
2021/08/15 06:33:34;;;;;;;;;;;;;;;24.70;61.88;96490.28;5108255;28;19983;-79
2021/08/15 06:36:00;;;;;;;;;;;;;;;24.86;61.39;96488.78;5129139;27;20010;-79
2021/08/15 06:38:26;;;;;;;;;;;;;;;24.83;60.89;96491.28;5127251;27;20050;-79
2021/08/15 06:40:53;;;;;;;;;;;;;;;24.92;61.53;96492.13;5123321;27;20438;-79
2021/08/15 06:43:19;;;;;;;;;;;;;;;25.05;61.38;96485.88;5130839;27;19972;-79
2021/08/15 06:45:45;;;;;;;;;;;;;;;25.25;60.22;96486.44;5133072;27;19983;-80
2021/08/15 06:48:11;;;;;;;;;;;;;;;25.44;60.27;96486.16;5129363;27;20017;-79
2021/08/15 06:50:37;;;;;;;;;;;;;;;25.43;59.84;96473.81;5129015;27;19965;-79
2021/08/15 06:53:03;;;;;;;;;;;;;;;25.37;59.41;96473.22;5112411;27;20074;-79
2021/08/15 06:55:29;;;;;;;;;;;;;;;25.34;59.21;96481.09;5127762;27;19978;-79
2021/08/15 06:57:55;;;;;;;;;;;;;;;25.28;59.48;96473.19;5133640;27;19968;-79
2021/08/15 07:00:21;;;;;;;;;;;;;;;25.24;59.69;96477.59;5128929;27;20363;-79
2021/08/15 07:02:50;;;;;;;;;;;;;;;25.30;60.60;96487.09;5123247;27;20057;-79
2021/08/15 07:05:16;;;;;;;;;;;;;;;25.39;60.93;96484.41;5127994;27;20357;-79
2021/08/15 07:07:42;;;;;;;;;;;;;;;25.55;60.98;96482.06;5112365;28;19975;-79
2021/08/15 07:10:08;;;;;;;;;;;;;;;25.65;59.54;96467.56;5131988;27;19967;-79
2021/08/15 07:12:34;;;;;;;;;;;;;;;25.81;60.24;96470.59;5122588;27;19976;-79
2021/08/15 07:15:01;;;;;;;;;;;;;;;25.94;59.33;96460.81;5122923;27;20441;-79
2021/08/15 07:17:29;;;;;;;;;;;;;;;26.07;59.04;96459.84;5101813;27;19968;-79
2021/08/15 07:19:55;;;;;;;;;;;;;;;26.18;59.20;96468.38;5119114;27;19975;-79
2021/08/15 07:22:21;;;;;;;;;;;;;;;26.13;58.64;96463.94;5108936;27;19972;-79
2021/08/15 07:24:47;;;;;;;;;;;;;;;26.13;58.58;96477.38;5107303;27;20447;-79
2021/08/15 07:27:13;;;;;;;;;;;;;;;26.12;58.03;96467.72;5125061;27;20046;-79
2021/08/15 07:29:39;;;;;;;;;;;;;;;26.22;57.98;96478.16;5126508;27;20468;-79
2021/08/15 07:32:05;;;;;;;;;;;;;;;26.22;57.52;96472.00;5105787;27;19976;-79
2021/08/15 07:34:31;;;;;;;;;;;;;;;26.18;58.18;96482.59;5107900;28;19983;-79
2021/08/15 07:36:57;;;;;;;;;;;;;;;26.25;58.45;96484.81;5113538;27;20008;-79
2021/08/15 07:39:23;;;;;;;;;;;;;;;26.39;58.26;96484.63;5128014;27;19972;-79
2021/08/15 07:41:49;;;;;;;;;;;;;;;26.55;57.81;96474.16;5133680;27;20012;-79
2021/08/15 07:44:15;;;;;;;;;;;;;;;26.56;56.92;96470.34;5130098;27;20508;-79
2021/08/15 07:46:41;;;;;;;;;;;;;;;26.52;57.07;96470.19;5125431;27;19972;-79
2021/08/15 07:49:07;;;;;;;;;;;;;;;26.56;57.00;96464.97;5128708;27;19972;-79
2021/08/15 07:51:33;;;;;;;;;;;;;;;26.57;57.54;96469.28;5120066;27;19972;-79
2021/08/15 07:53:59;;;;;;;;;;;;;;;26.68;57.35;96462.44;5124327;27;19968;-79
2021/08/15 07:56:24;;;;;;;;;;;;;;;26.70;56.72;96468.28;5125772;27;20013;-79
2021/08/15 07:58:50;;;;;;;;;;;;;;;26.71;55.32;96449.13;5123549;27;19979;-79
2021/08/15 08:01:17;;;;;;;;;;;;;;;26.67;57.49;96468.94;5122117;27;19983;-79
2021/08/15 08:03:43;;;;;;;;;;;;;;;26.71;57.01;96457.22;5126641;27;19971;-79
2021/08/15 08:06:09;;;;;;;;;;;;;;;26.73;56.96;96455.00;5129016;27;19971;-79
2021/08/15 08:08:34;;;;;;;;;;;;;;;26.91;56.99;96454.91;5108018;28;19968;-79
2021/08/15 08:11:00;;;;;;;;;;;;;;;27.16;56.13;96453.22;5126551;27;19979;-79
2021/08/15 08:13:27;;;;;;;;;;;;;;;27.29;55.08;96438.75;5118968;27;20464;-79
2021/08/15 08:15:53;;;;;;;;;;;;;;;27.44;55.88;96444.69;5124908;27;19979;-79
2021/08/15 08:18:19;;;;;;;;;;;;;;;27.63;54.14;96425.38;5114745;27;19975;-79
2021/08/15 08:20:45;;;;;;;;;;;;;;;27.75;54.18;96433.50;5096320;28;20425;-79
2021/08/15 08:23:12;;;;;;;;;;;;;;;27.84;54.17;96436.13;5120929;27;19972;-79
2021/08/15 08:25:38;;;;;;;;;;;;;;;27.92;53.18;96419.13;5126272;27;20340;-79
2021/08/15 08:28:04;;;;;;;;;;;;;;;28.04;54.24;96427.28;5121979;27;19968;-81
2021/08/15 08:30:30;;;;;;;;;;;;;;;28.05;53.96;96423.44;5129156;27;19992;-79
2021/08/15 08:32:56;;;;;;;;;;;;;;;28.02;53.00;96415.25;5129400;27;19992;-79
2021/08/15 08:35:22;;;;;;;;;;;;;;;27.91;51.60;96396.78;5125615;27;19972;-79
2021/08/15 08:37:48;;;;;;;;;;;;;;;27.93;52.17;96405.34;5123886;27;20323;-79
2021/08/15 08:40:15;;;;;;;;;;;;;;;27.93;50.28;96377.59;5120415;27;20034;-80
2021/08/15 08:42:42;;;;;;;;;;;;;;;27.91;48.75;96356.38;5127349;27;19964;-79
2021/08/15 08:45:08;;;;;;;;;;;;;;;27.87;50.99;96371.63;5124344;27;19975;-79
2021/08/15 08:47:34;;;;;;;;;;;;;;;27.90;52.49;96389.03;5121144;27;19979;-79
2021/08/15 08:50:00;;;;;;;;;;;;;;;27.95;53.71;96405.00;5131159;27;20437;-79
2021/08/15 08:52:29;;;;;;;;;;;;;;;28.02;51.93;96381.00;5111509;27;20448;-79
2021/08/15 08:55:01;;;;;;;;;;;;;;;27.90;50.99;96367.47;5125245;27;19968;-80
2021/08/15 08:57:27;;;;;;;;;;;;;;;27.73;51.19;96366.47;5127683;27;19964;-80
2021/08/15 08:59:54;;;;;;;;;;;;;;;27.76;52.58;96383.91;5110999;27;19972;-80
2021/08/15 09:02:20;;;;;;;;;;;;;;;27.82;51.12;96376.38;5105066;27;19971;-79
2021/08/15 09:04:46;;;;;;;;;;;;;;;27.82;52.18;96381.78;5102859;28;20480;-79
2021/08/15 09:07:17;;;;;;;;;;;;;;;27.81;50.89;96364.06;5130489;27;20410;-79
2021/08/15 09:09:56;;;;;;;;;;;;;;;27.75;50.98;96358.06;5123620;27;19964;-79
2021/08/15 09:12:33;;;;;;;;;;;;;;;27.75;50.13;96352.69;5119807;27;20348;-79
2021/08/15 09:15:06;;;;;;;;;;;;;;;27.83;52.43;96383.38;5124304;27;19975;-79
2021/08/15 09:17:36;;;;;;;;;;;;;;;27.74;51.51;96378.06;5121983;27;19968;-79
2021/08/15 09:20:03;;;;;;;;;;;;;;;27.61;53.45;96396.06;5112210;28;19972;-80
2021/08/15 09:22:30;;;;;;;;;;;;;;;27.55;53.91;96397.41;5124248;27;19974;-79
2021/08/15 09:25:07;;;;;;;;;;;;;;;27.52;52.82;96384.56;5123368;27;19971;-79
2021/08/15 09:27:54;;;;;;;;;;;;;;;27.57;53.56;96378.19;5104426;28;19968;-81
2021/08/15 09:30:20;;;;;;;;;;;;;;;27.73;52.96;96379.94;5108798;28;20364;-79
2021/08/15 09:33:05;;;;;;;;;;;;;;;28.02;52.83;96364.81;5124737;28;19990;-79
2021/08/15 09:35:37;;;;;;;;;;;;;;;28.21;52.51;96363.50;5118148;28;19972;-80
2021/08/15 09:38:04;;;;;;;;;;;;;;;28.32;51.21;96367.34;5129870;28;19968;-80
2021/08/15 09:40:38;;;;;;;;;;;;;;;28.39;51.24;96364.91;5126671;28;19978;-79
2021/08/15 09:43:05;;;;;;;;;;;;;;;28.22;50.32;96352.38;5115208;28;20425;-80
2021/08/15 09:45:36;;;;;;;;;;;;;;;28.09;51.85;96372.34;5107041;28;19969;-79
2021/08/15 09:48:15;;;;;;;;;;;;;;;27.90;50.45;96357.47;5129333;28;20340;-80
2021/08/15 09:50:41;;;;;;;;;;;;;;;27.80;51.83;96359.75;5124023;28;20417;-80
2021/08/15 09:53:22;;;;;;;;;;;;;;;27.77;52.02;96361.22;5105997;28;20022;-80
2021/08/15 09:55:48;;;;;;;;;;;;;;;27.61;51.67;96355.66;5116450;28;19964;-80
2021/08/15 09:58:17;;;;;;;;;;;;;;;27.57;52.85;96360.13;5110264;28;19973;-79
2021/08/15 10:00:43;;;;;;;;;;;;;;;27.51;52.59;96358.78;5106894;28;20448;-79
2021/08/15 10:03:09;;;;;;;;;;;;;;;27.46;52.68;96358.94;5095592;28;19976;-80
2021/08/15 10:05:35;;;;;;;;;;;;;;;27.51;52.16;96343.38;5096197;28;19975;-79
2021/08/15 10:08:02;;;;;;;;;;;;;;;27.71;53.73;96354.47;5123866;28;20357;-80
2021/08/15 10:10:34;;;;;;;;;;;;;;;27.81;52.65;96351.34;5109790;28;20344;-80
2021/08/15 10:13:00;;;;;;;;;;;;;;;27.84;51.90;96331.03;5125780;28;19986;-79
2021/08/15 10:15:27;;;;;;;;;;;;;;;27.87;52.47;96336.59;5120378;28;19976;-80
2021/08/15 10:17:54;;;;;;;;;;;;;;;28.00;52.96;96342.00;5125030;28;19968;-79
2021/08/15 10:20:21;;;;;;;;;;;;;;;28.23;52.55;96343.19;5125363;28;19979;-79
2021/08/15 10:22:48;;;;;;;;;;;;;;;28.34;51.26;96332.75;5123474;28;19968;-79
2021/08/15 10:25:34;;;;;;;;;;;;;;;28.26;51.48;96337.09;5102288;28;19979;-79
2021/08/15 10:28:00;;;;;;;;;;;;;;;28.19;53.01;96344.97;5113615;28;19979;-79
2021/08/15 10:30:26;;;;;;;;;;;;;;;28.25;53.59;96349.03;5106625;28;20000;-79
2021/08/15 10:32:55;;;;;;;;;;;;;;;28.36;52.85;96333.19;5121634;28;20033;-79
2021/08/15 10:35:29;;;;;;;;;;;;;;;28.61;52.40;96330.53;5124673;28;20022;-79
2021/08/15 10:37:56;;;;;;;;;;;;;;;28.84;51.10;96307.34;5100286;28;19973;-80
2021/08/15 10:40:41;;;;;;;;;;;;;;;28.88;49.90;96292.06;5102656;28;20001;-79
2021/08/15 10:43:10;;;;;;;;;;;;;;;28.91;51.38;96306.78;5114868;28;19968;-80
2021/08/15 10:45:37;;;;;;;;;;;;;;;29.10;51.19;96314.31;5120985;28;19976;-79
2021/08/15 10:48:09;;;;;;;;;;;;;;;29.20;50.31;96302.25;5130761;27;19968;-79
2021/08/15 10:50:42;;;;;;;;;;;;;;;29.39;52.01;96329.41;5116012;27;19967;-80
2021/08/15 10:53:29;;;;;;;;;;;;;;;29.61;52.34;96313.78;5132683;27;19991;-79
2021/08/15 10:55:56;;;;;;;;;;;;;;;29.78;50.14;96293.81;5126189;27;20340;-79
2021/08/15 10:58:41;;;;;;;;;;;;;;;29.78;48.83;96264.06;5128622;27;20452;-79
2021/08/15 11:01:08;;;;;;;;;;;;;;;29.83;50.10;96261.13;5130591;27;19983;-80
2021/08/15 11:03:35;;;;;;;;;;;;;;;29.93;49.57;96253.28;5107209;28;19971;-80
2021/08/15 11:06:02;;;;;;;;;;;;;;;30.11;49.49;96253.72;5118337;27;19975;-80
2021/08/15 11:08:34;;;;;;;;;;;;;;;30.17;46.56;96218.28;5124139;27;19975;-80
2021/08/15 11:11:05;;;;;;;;;;;;;;;30.23;48.23;96222.31;5115706;27;19972;-80
2021/08/15 11:13:31;;;;;;;;;;;;;;;30.16;46.34;96204.00;5131578;27;20456;-81
2021/08/15 11:16:27;;;;;;;;;;;;;;;30.23;48.29;96208.78;5125819;27;19979;-81
2021/08/15 11:19:08;;;;;;;;;;;;;;;30.29;46.85;96189.25;5052080;28;20347;-80
2021/08/15 11:22:15;;;;;;;;;;;;;;;30.45;48.91;96210.88;5128799;27;19971;-79
2021/08/15 11:24:44;;;;;;;;;;;;;;;30.68;44.49;96173.09;5018807;28;19980;-80
2021/08/15 11:27:11;;;;;;;;;;;;;;;30.68;44.41;96181.19;5033559;28;19986;-80
2021/08/15 11:29:42;;;;;;;;;;;;;;;30.64;44.69;96193.06;5081806;27;19972;-80
2021/08/15 11:32:27;;;;;;;;;;;;;;;30.82;46.02;96198.88;5126319;27;19972;-80
2021/08/15 11:34:53;;;;;;;;;;;;;;;31.19;44.70;96174.88;5128381;27;19968;-80
2021/08/15 11:37:20;;;;;;;;;;;;;;;31.44;44.29;96166.44;5134160;27;19979;-80
2021/08/15 11:39:46;;;;;;;;;;;;;;;31.46;44.63;96159.50;5123655;27;19968;-80
2021/08/15 11:42:16;;;;;;;;;;;;;;;31.19;42.33;96160.56;5099632;27;19968;-80
2021/08/15 11:44:56;;;;;;;;;;;;;;;31.04;44.31;96170.34;5133402;27;20364;-80
2021/08/15 11:47:29;;;;;;;;;;;;;;;31.21;41.38;96163.69;5126833;27;19972;-79
2021/08/15 11:49:56;;;;;;;;;;;;;;;31.34;42.43;96173.19;5125241;27;19971;-79
2021/08/15 11:52:23;;;;;;;;;;;;;;;31.51;42.21;96175.47;5124086;27;19975;-80
2021/08/15 11:54:50;;;;;;;;;;;;;;;31.72;44.08;96204.09;5106186;27;19968;-80
2021/08/15 11:57:16;;;;;;;;;;;;;;;31.85;43.19;96197.31;5129930;27;19968;-80
2021/08/15 11:59:44;;;;;;;;;;;;;;;31.73;41.83;96201.03;5126201;27;20052;-80
2021/08/15 12:02:15;;;;;;;;;;;;;;;31.42;42.21;96203.94;5109374;27;19971;-80
2021/08/15 12:04:42;;;;;;;;;;;;;;;31.14;43.08;96230.13;5134453;27;19968;-80
2021/08/15 12:07:08;;;;;;;;;;;;;;;30.91;44.54;96251.72;5123359;27;19972;-79
2021/08/15 12:09:34;;;;;;;;;;;;;;;30.46;46.37;96253.00;5121782;27;19967;-79
2021/08/15 12:12:04;;;;;;;;;;;;;;;29.70;48.18;96258.50;5127901;27;20349;-79
2021/08/15 12:14:37;;;;;;;;;;;;;;;29.23;49.22;96258.34;5107626;27;19988;-79
2021/08/15 12:17:03;;;;;;;;;;;;;;;28.78;50.58;96268.22;5125677;27;19967;-79
2021/08/15 12:19:30;;;;;;;;;;;;;;;28.32;48.73;96262.94;5122404;27;19976;-79
2021/08/15 12:21:57;;;;;;;;;;;;;;;27.94;50.14;96285.59;5131885;27;19968;-79
2021/08/15 12:24:27;;;;;;;;;;;;;;;27.63;50.78;96275.28;5125214;27;19967;-79
2021/08/15 12:27:04;;;;;;;;;;;;;;;27.38;52.11;96279.00;5128692;27;20425;-79
2021/08/15 12:29:37;;;;;;;;;;;;;;;27.06;51.39;96257.88;5129345;27;19979;-79
2021/08/15 12:32:13;;;;;;;;;;;;;;;26.80;51.59;96257.28;5118731;27;19968;-79
2021/08/15 12:34:56;;;;;;;;;;;;;;;26.60;51.78;96273.06;5126883;27;19984;-79
2021/08/15 12:37:23;;;;;;;;;;;;;;;26.46;53.34;96283.25;5109799;28;19979;-81
2021/08/15 12:40:07;;;;;;;;;;;;;;;26.38;57.95;96282.19;5124795;27;19971;-77
2021/08/15 12:42:33;;;;;;;;;;;;;;;26.28;58.46;96271.78;5106184;27;20444;-81
2021/08/15 12:45:02;;;;;;;;;;;;;;;26.18;57.85;96272.94;5121207;27;20057;-82
2021/08/15 12:47:33;;;;;;;;;;;;;;;26.02;58.50;96274.59;5111110;27;19971;-81
2021/08/15 12:50:05;;;;;;;;;;;;;;;25.80;59.30;96281.72;5122276;27;19964;-80